Time;durP1;ratioP1;P1;durP2;ratioP2;P2;SDS_P1;SDS_P2;PMS_P1;PMS_P2;Temp;Humidity;BMP_temperature;BMP_pressure;BME280_temperature;BME280_humidity;BME280_pressure;Samples;Min_cycle;Max_cycle;Signal;HPM_P1;HPM_P2
2023/04/06 00:00:48;;;;;;;0.03;0.03;;;4.90;62.70;;;;;;4972056;28;20035;-63
2023/04/06 00:03:14;;;;;;;0.10;0.10;;;4.90;63.10;;;;;;4971743;28;20043;-63
2023/04/06 00:05:40;;;;;;;0.00;0.00;;;4.90;62.90;;;;;;4972284;28;20042;-63
2023/04/06 00:08:05;;;;;;;0.10;0.10;;;4.90;63.10;;;;;;4971104;28;20042;-64
2023/04/06 00:10:31;;;;;;;0.47;0.47;;;4.90;63.10;;;;;;4971903;28;20113;-64
2023/04/06 00:12:58;;;;;;;0.10;0.10;;;4.80;63.50;;;;;;4971879;28;20135;-63
2023/04/06 00:15:24;;;;;;;0.00;0.00;;;4.90;63.50;;;;;;4972066;28;20038;-63
2023/04/06 00:17:49;;;;;;;0.00;0.00;;;4.90;63.60;;;;;;4971614;28;20524;-63
2023/04/06 00:20:16;;;;;;;0.00;0.00;;;4.80;63.50;;;;;;4971111;28;20035;-63
2023/04/06 00:22:41;;;;;;;0.00;0.00;;;4.80;63.40;;;;;;4972173;28;20142;-63
2023/04/06 00:25:07;;;;;;;0.00;0.00;;;4.80;63.40;;;;;;4971596;28;20135;-63
2023/04/06 00:27:33;;;;;;;0.00;0.00;;;4.70;63.30;;;;;;4971872;28;20407;-63
2023/04/06 00:29:59;;;;;;;0.03;0.03;;;4.70;63.20;;;;;;4971682;28;20047;-63
2023/04/06 00:32:24;;;;;;;0.00;0.00;;;4.60;63.70;;;;;;4971046;28;20101;-63
2023/04/06 00:34:50;;;;;;;0.17;0.17;;;4.60;63.50;;;;;;4986179;28;20495;-63
2023/04/06 00:37:16;;;;;;;0.00;0.00;;;4.60;63.40;;;;;;4971884;28;20046;-63
2023/04/06 00:39:41;;;;;;;0.00;0.00;;;4.60;63.40;;;;;;4971470;28;20054;-64
2023/04/06 00:42:15;;;;;;;0.00;0.00;;;4.60;63.40;;;;;;4971186;28;20054;-62
2023/04/06 00:44:41;;;;;;;0.00;0.00;;;4.50;63.70;;;;;;4971129;28;20055;-63
2023/04/06 00:47:07;;;;;;;0.00;0.00;;;4.50;63.30;;;;;;4971105;28;20046;-63
2023/04/06 00:49:33;;;;;;;0.00;0.00;;;4.50;63.60;;;;;;4971283;28;20038;-63
2023/04/06 00:51:59;;;;;;;0.03;0.03;;;4.40;63.60;;;;;;4975218;28;20054;-63
2023/04/06 00:54:25;;;;;;;0.00;0.00;;;4.40;63.60;;;;;;4971435;28;20467;-63
2023/04/06 00:56:51;;;;;;;0.00;0.00;;;4.40;64.20;;;;;;4973618;28;20043;-64
2023/04/06 00:59:17;;;;;;;0.03;0.03;;;4.40;64.00;;;;;;4970991;28;20396;-63
2023/04/06 01:01:42;;;;;;;0.00;0.00;;;4.40;64.30;;;;;;4971098;28;20121;-63
2023/04/06 01:04:08;;;;;;;0.00;0.00;;;4.30;64.50;;;;;;4977511;28;20137;-63
2023/04/06 01:06:34;;;;;;;0.00;0.00;;;4.30;64.90;;;;;;4980648;28;20045;-63
2023/04/06 01:09:00;;;;;;;0.00;0.00;;;4.30;64.60;;;;;;4970468;28;20043;-63
2023/04/06 01:11:26;;;;;;;0.00;0.00;;;4.30;64.50;;;;;;4970719;28;20074;-63
2023/04/06 01:13:52;;;;;;;0.00;0.00;;;4.20;64.20;;;;;;4971241;28;20070;-63
2023/04/06 01:16:17;;;;;;;0.00;0.00;;;4.20;64.80;;;;;;4971511;28;20098;-63
2023/04/06 01:18:43;;;;;;;0.00;0.00;;;4.20;64.80;;;;;;4972835;28;20050;-62
2023/04/06 01:21:15;;;;;;;0.00;0.00;;;4.20;64.80;;;;;;4990219;28;20046;-63
2023/04/06 01:23:46;;;;;;;0.00;0.00;;;4.20;64.80;;;;;;4983374;28;20054;-64
2023/04/06 01:26:13;;;;;;;0.10;0.10;;;4.20;65.20;;;;;;4974911;28;20051;-63
2023/04/06 01:28:39;;;;;;;0.00;0.00;;;4.20;65.30;;;;;;4975317;28;20053;-64
2023/04/06 01:31:07;;;;;;;0.00;0.00;;;4.20;65.50;;;;;;4972917;28;20097;-64
2023/04/06 01:33:33;;;;;;;0.00;0.00;;;4.20;65.40;;;;;;4961015;28;20142;-64
2023/04/06 01:35:59;;;;;;;0.38;0.38;;;4.20;65.20;;;;;;4981690;28;20543;-64
2023/04/06 01:38:26;;;;;;;0.00;0.00;;;4.20;65.30;;;;;;4971064;28;20039;-63
2023/04/06 01:40:52;;;;;;;0.00;0.00;;;4.20;65.10;;;;;;4957595;28;20078;-64
2023/04/06 01:43:17;;;;;;;0.00;0.00;;;4.20;65.20;;;;;;4968970;28;20078;-64
2023/04/06 01:45:43;;;;;;;0.00;0.00;;;4.10;65.30;;;;;;4969726;28;20043;-63
2023/04/06 01:48:08;;;;;;;0.00;0.00;;;4.20;65.30;;;;;;4982724;28;20137;-64
2023/04/06 01:50:34;;;;;;;0.00;0.00;;;4.10;65.40;;;;;;4970288;28;20150;-64
2023/04/06 01:53:00;;;;;;;0.03;0.03;;;4.10;65.50;;;;;;4969897;28;20085;-63
2023/04/06 01:55:25;;;;;;;0.00;0.00;;;4.10;65.30;;;;;;4969743;28;20042;-64
2023/04/06 01:57:51;;;;;;;0.00;0.00;;;4.00;65.30;;;;;;4969541;28;20134;-64
2023/04/06 02:00:17;;;;;;;0.00;0.00;;;4.00;65.40;;;;;;4970094;28;20038;-63
2023/04/06 02:02:42;;;;;;;0.00;0.00;;;4.00;65.50;;;;;;4970112;28;20039;-64
2023/04/06 02:05:08;;;;;;;0.00;0.00;;;3.90;65.40;;;;;;4969924;28;20047;-64
2023/04/06 02:07:34;;;;;;;0.00;0.00;;;3.90;65.30;;;;;;4969847;28;20078;-64
2023/04/06 02:10:00;;;;;;;0.00;0.00;;;3.90;65.20;;;;;;4970072;28;20038;-64
2023/04/06 02:12:25;;;;;;;0.00;0.00;;;3.90;65.30;;;;;;4970205;28;20047;-64
2023/04/06 02:14:51;;;;;;;0.00;0.00;;;3.90;65.70;;;;;;4969590;28;20158;-64
2023/04/06 02:17:17;;;;;;;0.00;0.00;;;3.80;66.20;;;;;;4964215;28;20039;-64
2023/04/06 02:19:42;;;;;;;0.00;0.00;;;3.80;66.60;;;;;;4969044;28;20134;-64
2023/04/06 02:22:08;;;;;;;0.00;0.00;;;3.90;66.10;;;;;;4972621;28;20578;-63
2023/04/06 02:24:34;;;;;;;0.00;0.00;;;3.80;66.20;;;;;;4974043;28;20570;-64
2023/04/06 02:27:00;;;;;;;0.00;0.00;;;3.80;66.10;;;;;;4973738;28;20169;-64
2023/04/06 02:29:25;;;;;;;0.00;0.00;;;3.80;66.10;;;;;;4973875;28;20081;-64
2023/04/06 02:31:51;;;;;;;0.00;0.00;;;3.80;66.00;;;;;;4957110;28;20054;-64
2023/04/06 02:34:19;;;;;;;0.00;0.00;;;3.80;66.20;;;;;;4973471;28;20228;-64
2023/04/06 02:36:46;;;;;;;0.00;0.00;;;3.70;66.10;;;;;;4973834;28;20074;-64
2023/04/06 02:39:12;;;;;;;0.00;0.00;;;3.70;66.00;;;;;;4965557;28;20126;-64
2023/04/06 02:41:37;;;;;;;0.00;0.00;;;3.70;66.20;;;;;;4973642;28;20656;-64
2023/04/06 02:44:03;;;;;;;0.17;0.17;;;3.70;66.10;;;;;;4972592;28;20086;-64
2023/04/06 02:46:29;;;;;;;0.00;0.00;;;3.60;66.30;;;;;;4973456;28;20077;-64
2023/04/06 02:48:55;;;;;;;0.00;0.00;;;3.60;66.60;;;;;;4973154;28;20050;-64
2023/04/06 02:51:20;;;;;;;0.00;0.00;;;3.60;66.40;;;;;;4973604;28;20063;-64
2023/04/06 02:53:46;;;;;;;0.00;0.00;;;3.60;66.10;;;;;;4973215;28;20050;-64
2023/04/06 02:56:12;;;;;;;0.00;0.00;;;3.60;66.50;;;;;;4973380;28;20042;-64
2023/04/06 02:58:37;;;;;;;0.00;0.00;;;3.60;66.90;;;;;;4973066;28;20057;-64
2023/04/06 03:01:03;;;;;;;0.10;0.10;;;3.50;66.50;;;;;;4972614;28;20082;-64
2023/04/06 03:03:30;;;;;;;0.00;0.00;;;3.50;66.40;;;;;;4940372;28;20045;-64
2023/04/06 03:05:58;;;;;;;0.00;0.00;;;3.40;66.30;;;;;;4973682;28;20046;-64
2023/04/06 03:08:24;;;;;;;0.00;0.00;;;3.40;66.60;;;;;;4966226;28;20047;-64
2023/04/06 03:10:50;;;;;;;0.05;0.05;;;3.40;67.30;;;;;;4957164;28;20039;-64
2023/04/06 03:13:16;;;;;;;0.00;0.00;;;3.40;67.20;;;;;;4973194;28;20047;-64
2023/04/06 03:15:41;;;;;;;0.10;0.10;;;3.40;67.20;;;;;;4973259;28;20047;-64
2023/04/06 03:18:07;;;;;;;0.00;0.00;;;3.40;67.10;;;;;;4972827;28;20047;-63
2023/04/06 03:20:32;;;;;;;0.10;0.10;;;3.40;67.20;;;;;;4973475;28;20089;-63
2023/04/06 03:22:58;;;;;;;0.00;0.00;;;3.40;67.70;;;;;;4972857;28;20070;-64
2023/04/06 03:25:24;;;;;;;0.05;0.05;;;3.40;67.60;;;;;;4956051;28;20692;-63
2023/04/06 03:27:49;;;;;;;0.00;0.00;;;3.40;67.60;;;;;;4972084;28;20047;-64
2023/04/06 03:30:17;;;;;;;0.00;0.00;;;3.40;67.30;;;;;;4955813;28;20054;-63
2023/04/06 03:32:43;;;;;;;0.00;0.00;;;3.40;67.00;;;;;;4963803;28;20055;-64
2023/04/06 03:35:09;;;;;;;0.00;0.00;;;3.40;66.90;;;;;;4965193;28;20047;-64
2023/04/06 03:37:35;;;;;;;0.00;0.00;;;3.40;67.10;;;;;;4972530;28;20027;-64
2023/04/06 03:40:01;;;;;;;0.10;0.10;;;3.40;67.10;;;;;;4972682;28;20665;-64
2023/04/06 03:42:26;;;;;;;0.00;0.00;;;3.40;67.20;;;;;;4972298;28;20210;-64
2023/04/06 03:44:52;;;;;;;2.08;0.73;;;3.40;67.10;;;;;;4971920;28;20129;-64
2023/04/06 03:47:17;;;;;;;0.10;0.10;;;3.40;66.90;;;;;;4972598;28;20078;-64
2023/04/06 03:49:43;;;;;;;0.00;0.00;;;3.40;67.00;;;;;;4971442;28;20046;-63
2023/04/06 03:52:09;;;;;;;0.08;0.08;;;3.30;66.80;;;;;;4978039;28;20512;-64
2023/04/06 03:54:35;;;;;;;0.00;0.00;;;3.30;66.80;;;;;;4971850;28;20113;-64
2023/04/06 03:57:00;;;;;;;0.10;0.10;;;3.20;67.40;;;;;;4972267;28;20562;-63
2023/04/06 03:59:26;;;;;;;0.00;0.00;;;3.30;67.50;;;;;;4971819;28;20141;-64
2023/04/06 04:01:52;;;;;;;0.00;0.00;;;3.20;67.90;;;;;;4972460;28;20035;-64
2023/04/06 04:04:17;;;;;;;0.00;0.00;;;3.20;67.60;;;;;;4972022;28;20071;-64
2023/04/06 04:06:43;;;;;;;0.00;0.00;;;3.20;67.60;;;;;;4972171;28;20049;-64
2023/04/06 04:09:08;;;;;;;0.10;0.10;;;3.30;67.90;;;;;;4974185;28;20039;-64
2023/04/06 04:11:34;;;;;;;0.00;0.00;;;3.30;67.80;;;;;;4982100;28;20082;-64
2023/04/06 04:14:00;;;;;;;0.00;0.00;;;3.20;68.10;;;;;;4981759;28;20049;-64
2023/04/06 04:16:25;;;;;;;0.00;0.00;;;3.20;67.70;;;;;;4954586;28;20046;-63
2023/04/06 04:18:51;;;;;;;0.00;0.00;;;3.20;68.00;;;;;;4973146;28;20478;-64
2023/04/06 04:21:16;;;;;;;0.00;0.00;;;3.20;68.20;;;;;;4952396;28;20039;-63
2023/04/06 04:23:42;;;;;;;0.10;0.10;;;3.20;67.80;;;;;;4956630;28;20051;-64
2023/04/06 04:26:07;;;;;;;0.00;0.00;;;3.10;68.10;;;;;;4970464;28;20046;-64
2023/04/06 04:28:33;;;;;;;0.00;0.00;;;3.20;68.10;;;;;;4973639;28;20069;-64
2023/04/06 04:30:58;;;;;;;0.05;0.05;;;3.10;68.20;;;;;;4966465;28;20066;-64
2023/04/06 04:33:24;;;;;;;0.00;0.00;;;3.10;68.70;;;;;;4970219;28;20385;-64
2023/04/06 04:35:50;;;;;;;0.08;0.08;;;3.20;68.20;;;;;;4970188;28;20047;-64
2023/04/06 04:38:15;;;;;;;0.00;0.00;;;3.20;68.00;;;;;;4971569;28;20058;-64
2023/04/06 04:40:41;;;;;;;0.00;0.00;;;3.10;68.20;;;;;;4969641;28;20042;-64
2023/04/06 04:43:06;;;;;;;0.00;0.00;;;3.10;68.20;;;;;;4969718;28;20090;-64
2023/04/06 04:45:32;;;;;;;0.00;0.00;;;3.10;68.70;;;;;;4952952;28;20046;-64
2023/04/06 04:47:57;;;;;;;0.00;0.00;;;3.10;68.90;;;;;;4970600;28;20049;-64
2023/04/06 04:50:23;;;;;;;0.03;0.03;;;3.10;68.80;;;;;;4952503;28;20514;-64
2023/04/06 04:52:49;;;;;;;0.00;0.00;;;3.10;68.80;;;;;;4966129;28;20478;-64
2023/04/06 04:55:14;;;;;;;0.00;0.00;;;3.10;68.70;;;;;;4970128;28;20090;-64
2023/04/06 04:57:40;;;;;;;0.00;0.00;;;3.10;68.40;;;;;;4968183;28;20125;-64
2023/04/06 05:00:06;;;;;;;0.10;0.10;;;3.10;68.30;;;;;;4969369;28;20159;-64
2023/04/06 05:02:32;;;;;;;0.00;0.00;;;3.10;68.10;;;;;;4964626;28;20035;-64
2023/04/06 05:04:57;;;;;;;0.00;0.00;;;3.10;68.20;;;;;;4969374;28;20062;-64
2023/04/06 05:07:23;;;;;;;0.00;0.00;;;3.10;69.00;;;;;;4969459;28;20035;-63
2023/04/06 05:09:49;;;;;;;0.00;0.00;;;3.10;69.00;;;;;;4969299;28;20039;-64
2023/04/06 05:12:14;;;;;;;0.08;0.08;;;3.10;69.20;;;;;;4970213;28;20484;-64
2023/04/06 05:14:42;;;;;;;0.00;0.00;;;3.20;69.00;;;;;;4970623;28;20042;-64
2023/04/06 05:17:08;;;;;;;0.00;0.00;;;3.20;69.00;;;;;;4969421;28;20051;-64
2023/04/06 05:19:33;;;;;;;1.45;0.55;;;3.20;69.10;;;;;;4956104;28;20051;-64
2023/04/06 05:21:59;;;;;;;0.00;0.00;;;3.20;69.20;;;;;;4969380;28;20411;-64
2023/04/06 05:24:25;;;;;;;0.10;0.10;;;3.30;69.10;;;;;;4966790;28;20687;-64
2023/04/06 05:26:51;;;;;;;0.00;0.00;;;3.20;69.10;;;;;;4968597;28;20043;-64
2023/04/06 05:29:17;;;;;;;0.00;0.00;;;3.30;68.80;;;;;;4968406;28;20039;-64
2023/04/06 05:31:42;;;;;;;0.00;0.00;;;3.30;69.50;;;;;;4968521;28;20050;-64
2023/04/06 05:34:09;;;;;;;0.00;0.00;;;3.30;69.40;;;;;;4969254;28;20035;-65
2023/04/06 05:36:34;;;;;;;0.00;0.00;;;3.30;69.70;;;;;;4967537;28;20047;-64
2023/04/06 05:39:00;;;;;;;0.00;0.00;;;3.30;69.50;;;;;;4968375;28;20045;-64
2023/04/06 05:41:26;;;;;;;0.00;0.00;;;3.40;69.30;;;;;;4969415;28;20144;-64
2023/04/06 05:43:51;;;;;;;0.00;0.00;;;3.40;69.30;;;;;;4969433;28;20520;-63
2023/04/06 05:46:17;;;;;;;0.17;0.17;;;3.40;69.00;;;;;;4969442;28;20493;-63
2023/04/06 05:48:43;;;;;;;0.00;0.00;;;3.40;68.90;;;;;;4969130;28;20125;-64
2023/04/06 05:51:08;;;;;;;0.00;0.00;;;3.50;69.20;;;;;;4968799;28;20098;-64
2023/04/06 05:53:34;;;;;;;0.45;0.45;;;3.50;69.00;;;;;;4952268;28;20089;-64
2023/04/06 05:56:03;;;;;;;0.00;0.00;;;3.50;69.10;;;;;;4971483;28;20039;-64
2023/04/06 05:58:29;;;;;;;0.10;0.10;;;3.50;69.50;;;;;;4975841;28;20066;-64
2023/04/06 06:01:01;;;;;;;0.00;0.00;;;3.60;69.10;;;;;;4975223;28;20057;-64
2023/04/06 06:03:27;;;;;;;0.00;0.00;;;3.60;69.40;;;;;;4975316;28;20047;-63
2023/04/06 06:05:52;;;;;;;0.08;0.08;;;3.60;69.50;;;;;;4958827;28;20050;-63
2023/04/06 06:08:18;;;;;;;0.10;0.10;;;3.70;69.60;;;;;;4975056;28;20034;-64
2023/04/06 06:10:44;;;;;;;0.00;0.00;;;3.60;69.30;;;;;;4974479;28;20050;-64
2023/04/06 06:13:09;;;;;;;0.00;0.00;;;3.70;69.80;;;;;;4974985;28;20038;-64
2023/04/06 06:15:35;;;;;;;0.00;0.00;;;3.70;69.90;;;;;;4954792;28;20075;-64
2023/04/06 06:18:01;;;;;;;0.00;0.00;;;3.80;69.70;;;;;;4957026;28;20043;-63
2023/04/06 06:20:27;;;;;;;0.00;0.00;;;3.80;69.80;;;;;;4964898;28;20113;-64
2023/04/06 06:22:52;;;;;;;0.00;0.00;;;3.90;69.90;;;;;;4965059;28;20035;-64
2023/04/06 06:25:18;;;;;;;0.00;0.00;;;4.10;69.70;;;;;;4965346;28;20061;-64
2023/04/06 06:27:44;;;;;;;0.00;0.00;;;4.10;69.80;;;;;;4961664;28;20417;-64
2023/04/06 06:30:09;;;;;;;0.20;0.20;;;4.20;69.40;;;;;;4965528;28;20058;-64
2023/04/06 06:32:35;;;;;;;0.00;0.00;;;4.20;69.40;;;;;;4962325;28;20035;-65
2023/04/06 06:35:00;;;;;;;0.00;0.00;;;4.40;70.10;;;;;;4967767;28;20039;-64
2023/04/06 06:37:26;;;;;;;0.00;0.00;;;4.40;69.50;;;;;;4965342;28;20047;-64
2023/04/06 06:39:52;;;;;;;0.00;0.00;;;4.40;69.40;;;;;;4945142;28;20078;-64
2023/04/06 06:42:17;;;;;;;0.00;0.00;;;4.50;69.30;;;;;;4946982;28;20081;-64
2023/04/06 06:44:43;;;;;;;0.00;0.00;;;4.40;69.40;;;;;;4966485;28;20139;-64
2023/04/06 06:47:09;;;;;;;0.00;0.00;;;4.60;69.50;;;;;;4965950;28;20575;-64
2023/04/06 06:49:34;;;;;;;0.00;0.00;;;4.60;69.30;;;;;;4967151;28;20142;-64
2023/04/06 06:52:00;;;;;;;0.00;0.00;;;4.60;69.20;;;;;;4972202;28;20047;-64
2023/04/06 06:54:26;;;;;;;0.00;0.00;;;4.70;69.30;;;;;;4964296;28;20137;-65
2023/04/06 06:56:51;;;;;;;0.00;0.00;;;4.80;69.00;;;;;;4966262;28;20043;-64
2023/04/06 06:59:17;;;;;;;0.00;0.00;;;5.00;68.70;;;;;;4964807;28;20050;-64
2023/04/06 07:01:43;;;;;;;0.05;0.05;;;5.10;68.60;;;;;;4965549;28;20134;-64
2023/04/06 07:04:08;;;;;;;0.10;0.10;;;5.20;69.70;;;;;;4963830;28;20039;-64
2023/04/06 07:06:37;;;;;;;0.00;0.00;;;5.30;69.80;;;;;;4963366;28;20039;-64
2023/04/06 07:09:03;;;;;;;0.00;0.00;;;5.40;70.00;;;;;;4960073;28;20485;-64
2023/04/06 07:11:30;;;;;;;0.00;0.00;;;5.50;69.80;;;;;;4963548;28;20049;-64
2023/04/06 07:13:55;;;;;;;0.00;0.00;;;5.90;70.10;;;;;;4960448;28;20123;-64
2023/04/06 07:16:21;;;;;;;0.10;0.10;;;6.00;69.00;;;;;;4962630;28;20447;-64
2023/04/06 07:18:47;;;;;;;0.30;0.30;;;6.10;68.70;;;;;;4962070;28;20047;-64
2023/04/06 07:21:12;;;;;;;0.00;0.00;;;6.00;69.00;;;;;;4959618;28;20046;-64
2023/04/06 07:23:38;;;;;;;0.00;0.00;;;6.00;68.90;;;;;;4952301;28;20488;-64
2023/04/06 07:26:04;;;;;;;0.00;0.00;;;6.00;68.70;;;;;;4964276;28;20086;-64
2023/04/06 07:28:29;;;;;;;0.00;0.00;;;6.00;68.30;;;;;;4961923;28;20408;-64
2023/04/06 07:30:55;;;;;;;0.00;0.00;;;6.10;68.90;;;;;;4959913;28;20039;-64
2023/04/06 07:33:20;;;;;;;0.00;0.00;;;6.10;68.50;;;;;;4961028;28;20042;-63
2023/04/06 07:35:46;;;;;;;0.13;0.13;;;6.10;68.80;;;;;;4960557;28;20094;-64
2023/04/06 07:38:12;;;;;;;0.00;0.00;;;6.20;68.60;;;;;;4958639;28;20503;-64
2023/04/06 07:40:37;;;;;;;0.00;0.00;;;6.30;68.50;;;;;;4959049;28;20043;-64
2023/04/06 07:43:03;;;;;;;0.00;0.00;;;6.30;68.60;;;;;;4960336;28;20047;-64
2023/04/06 07:45:29;;;;;;;0.45;0.45;;;6.50;68.60;;;;;;4961585;28;20051;-64
2023/04/06 07:47:55;;;;;;;0.35;0.28;;;6.60;68.60;;;;;;4962389;28;20121;-64
2023/04/06 07:50:21;;;;;;;0.03;0.03;;;6.60;68.60;;;;;;4960504;28;21098;-64
2023/04/06 07:52:46;;;;;;;0.43;0.43;;;6.80;69.00;;;;;;4961721;28;20131;-64
2023/04/06 07:55:12;;;;;;;0.10;0.10;;;6.90;68.70;;;;;;4945555;28;20046;-64
2023/04/06 07:57:38;;;;;;;0.10;0.10;;;7.00;68.10;;;;;;4959687;28;20054;-64
2023/04/06 08:00:04;;;;;;;0.00;0.00;;;7.20;67.70;;;;;;4944329;28;20043;-64
2023/04/06 08:02:33;;;;;;;0.00;0.00;;;7.40;66.90;;;;;;4957399;28;20078;-64
2023/04/06 08:04:59;;;;;;;0.80;0.52;;;7.60;66.80;;;;;;4968206;28;20105;-64
2023/04/06 08:07:25;;;;;;;0.85;0.57;;;7.70;65.20;;;;;;4954041;28;20039;-64
2023/04/06 08:09:51;;;;;;;0.00;0.00;;;7.80;64.90;;;;;;4952237;28;20039;-64
2023/04/06 08:12:17;;;;;;;0.00;0.00;;;7.90;63.50;;;;;;4971858;28;20050;-64
2023/04/06 08:14:42;;;;;;;0.00;0.00;;;8.00;61.80;;;;;;4971338;28;20050;-64
2023/04/06 08:17:08;;;;;;;0.52;0.52;;;8.10;62.60;;;;;;4971100;28;20407;-64
2023/04/06 08:19:34;;;;;;;0.35;0.35;;;8.20;63.50;;;;;;4962412;28;20113;-64
2023/04/06 08:21:59;;;;;;;0.10;0.10;;;8.30;63.10;;;;;;4971260;28;20081;-64
2023/04/06 08:24:25;;;;;;;0.88;0.85;;;8.40;62.60;;;;;;4952922;28;20071;-64
2023/04/06 08:26:51;;;;;;;0.00;0.00;;;8.50;63.00;;;;;;4959180;28;20042;-65
2023/04/06 08:29:16;;;;;;;0.28;0.28;;;8.50;62.40;;;;;;4971285;28;20047;-63
2023/04/06 08:31:42;;;;;;;0.15;0.15;;;8.60;61.50;;;;;;4966908;28;20138;-64
2023/04/06 08:34:08;;;;;;;0.20;0.20;;;8.70;61.70;;;;;;4968473;28;20478;-64
2023/04/06 08:36:33;;;;;;;0.00;0.00;;;8.70;62.10;;;;;;4970992;28;20046;-64
2023/04/06 08:39:00;;;;;;;0.50;0.50;;;8.80;62.00;;;;;;4971398;28;20122;-67
2023/04/06 08:41:28;;;;;;;0.00;0.00;;;8.90;61.30;;;;;;4971221;28;20061;-64
2023/04/06 08:43:59;;;;;;;0.00;0.00;;;9.00;61.60;;;;;;4970881;28;20616;-64
2023/04/06 08:46:31;;;;;;;0.00;0.00;;;9.10;61.30;;;;;;4971140;28;20041;-65
2023/04/06 08:48:58;;;;;;;7.07;1.55;;;9.10;61.60;;;;;;4971108;28;20278;-64
2023/04/06 08:51:28;;;;;;;0.75;0.60;;;9.10;61.50;;;;;;4958446;28;20117;-64
2023/04/06 08:53:55;;;;;;;1.27;1.20;;;9.10;61.10;;;;;;4970832;28;20053;-65
2023/04/06 08:56:22;;;;;;;0.03;0.03;;;9.20;61.60;;;;;;4953603;28;20085;-64
2023/04/06 08:58:48;;;;;;;0.17;0.17;;;9.30;61.30;;;;;;4970079;28;20046;-64
2023/04/06 09:01:20;;;;;;;0.30;0.30;;;9.40;60.60;;;;;;4967044;28;20533;-64
2023/04/06 09:03:47;;;;;;;0.20;0.20;;;9.50;60.80;;;;;;4971103;28;20039;-64
2023/04/06 09:06:13;;;;;;;0.38;0.38;;;9.60;61.10;;;;;;4970510;28;20049;-64
2023/04/06 09:08:40;;;;;;;11.60;1.08;;;9.70;61.10;;;;;;4970438;28;20038;-64
2023/04/06 09:11:06;;;;;;;1.50;1.40;;;9.80;61.10;;;;;;4969607;28;20047;-64
2023/04/06 09:13:48;;;;;;;0.20;0.20;;;9.90;60.80;;;;;;4969658;28;20089;-64
2023/04/06 09:16:14;;;;;;;0.30;0.30;;;10.00;60.10;;;;;;4967514;28;20050;-64
2023/04/06 09:18:39;;;;;;;0.20;0.20;;;10.00;59.20;;;;;;4969850;28;20145;-64
2023/04/06 09:21:06;;;;;;;1.17;1.15;;;10.10;57.70;;;;;;4969830;28;20085;-64
2023/04/06 09:23:32;;;;;;;1.45;1.35;;;10.20;58.00;;;;;;4969854;28;20400;-62
2023/04/06 09:26:15;;;;;;;0.22;0.22;;;10.30;58.90;;;;;;4969827;28;20109;-63
2023/04/06 09:28:46;;;;;;;0.03;0.03;;;10.50;57.00;;;;;;4970381;28;20050;-65
2023/04/06 09:31:16;;;;;;;0.30;0.30;;;10.50;57.40;;;;;;4959170;28;20039;-62
2023/04/06 09:33:44;;;;;;;0.10;0.10;;;10.70;56.90;;;;;;4950856;29;20050;-62
2023/04/06 09:36:10;;;;;;;1.00;0.98;;;10.60;56.60;;;;;;4955896;28;20121;-62
2023/04/06 09:38:53;;;;;;;2.08;1.33;;;10.60;56.80;;;;;;4970529;28;20492;-63
2023/04/06 09:41:30;;;;;;;0.20;0.20;;;10.70;56.90;;;;;;4970476;28;20136;-63
2023/04/06 09:44:06;;;;;;;0.43;0.38;;;10.80;56.30;;;;;;4969870;28;20050;-62
2023/04/06 09:46:34;;;;;;;0.57;0.57;;;10.90;55.60;;;;;;4969732;28;20043;-62
2023/04/06 09:49:03;;;;;;;0.65;0.65;;;10.90;55.20;;;;;;4969991;28;20480;-63
2023/04/06 09:51:41;;;;;;;0.03;0.03;;;11.00;54.80;;;;;;4955395;28;20860;-63
2023/04/06 09:54:07;;;;;;;1.00;1.00;;;11.00;55.40;;;;;;4970300;28;20043;-64
2023/04/06 09:56:47;;;;;;;0.40;0.40;;;11.00;54.70;;;;;;4948949;29;20522;-63
2023/04/06 09:59:20;;;;;;;0.38;0.38;;;11.00;53.10;;;;;;4965487;28;20155;-62
2023/04/06 10:01:48;;;;;;;1.90;1.80;;;11.00;54.50;;;;;;4966735;28;20047;-65
2023/04/06 10:04:25;;;;;;;2.33;0.60;;;11.10;58.60;;;;;;4969386;28;20050;-62
2023/04/06 10:06:52;;;;;;;0.52;0.52;;;11.10;55.00;;;;;;4969036;28;20047;-61
2023/04/06 10:09:20;;;;;;;0.13;0.13;;;11.10;54.90;;;;;;4969198;28;20038;-63
2023/04/06 10:11:47;;;;;;;0.43;0.38;;;11.10;55.00;;;;;;4968853;28;20089;-63
2023/04/06 10:14:13;;;;;;;0.30;0.30;;;11.10;54.10;;;;;;4965551;28;20114;-63
2023/04/06 10:16:38;;;;;;;0.08;0.08;;;11.00;53.20;;;;;;4968839;28;20118;-62
2023/04/06 10:19:20;;;;;;;0.73;0.73;;;11.00;54.90;;;;;;4969480;28;20090;-63
2023/04/06 10:21:48;;;;;;;;;;;11.00;54.50;;;;;;4967105;28;20050;-63
2023/04/06 10:24:13;;;;;;;0.17;0.17;;;11.00;54.30;;;;;;4969821;28;19961;-62
2023/04/06 10:26:39;;;;;;;4.20;1.75;;;11.00;54.60;;;;;;4970133;28;20062;-62
2023/04/06 10:29:05;;;;;;;0.95;0.95;;;11.10;54.50;;;;;;4969831;28;20109;-62
2023/04/06 10:31:31;;;;;;;3.85;1.75;;;11.10;54.80;;;;;;4969540;28;20054;-62
2023/04/06 10:33:59;;;;;;;0.20;0.20;;;11.10;54.00;;;;;;4969405;28;20042;-62
2023/04/06 10:36:27;;;;;;;0.35;0.35;;;11.10;55.40;;;;;;4969110;28;20050;-62
2023/04/06 10:39:01;;;;;;;0.32;0.32;;;11.10;55.60;;;;;;4969614;28;20049;-62
2023/04/06 10:41:36;;;;;;;1.50;1.40;;;11.20;55.80;;;;;;4970074;28;20462;-62
2023/04/06 10:44:02;;;;;;;0.15;0.15;;;11.20;53.70;;;;;;4973325;28;20105;-62
2023/04/06 10:46:32;;;;;;;1.38;1.27;;;11.20;54.70;;;;;;4973755;28;20582;-62
2023/04/06 10:49:09;;;;;;;0.22;0.22;;;11.30;55.20;;;;;;4973044;28;20411;-63
2023/04/06 10:51:38;;;;;;;0.25;0.25;;;11.30;55.10;;;;;;4954697;28;20051;-63
2023/04/06 10:54:06;;;;;;;0.32;0.32;;;11.40;55.30;;;;;;4972709;28;20391;-65
2023/04/06 10:56:36;;;;;;;1.08;1.08;;;11.40;55.20;;;;;;4973005;28;20035;-62
2023/04/06 10:59:02;;;;;;;0.80;0.80;;;11.40;55.00;;;;;;4972547;28;20038;-63
2023/04/06 11:01:27;;;;;;;4.78;1.45;;;11.40;54.70;;;;;;4972778;28;20045;-63
2023/04/06 11:03:55;;;;;;;0.45;0.45;;;11.40;54.40;;;;;;4971659;28;20395;-63
2023/04/06 11:06:28;;;;;;;6.55;5.28;;;11.50;54.20;;;;;;4972680;28;20047;-63
2023/04/06 11:08:55;;;;;;;1.50;1.40;;;11.50;54.50;;;;;;4972651;28;20054;-63
2023/04/06 11:11:25;;;;;;;1.38;1.27;;;11.50;54.30;;;;;;4972785;28;20404;-63
2023/04/06 11:13:58;;;;;;;0.15;0.15;;;11.50;54.90;;;;;;4971871;28;20057;-63
2023/04/06 11:16:32;;;;;;;0.95;0.95;;;11.60;54.90;;;;;;4972481;28;20050;-63
2023/04/06 11:19:03;;;;;;;0.35;0.35;;;11.60;54.00;;;;;;4961812;28;20047;-64
2023/04/06 11:21:36;;;;;;;0.00;0.00;;;11.70;55.10;;;;;;4969899;28;20035;-63
2023/04/06 11:24:06;;;;;;;0.98;0.98;;;11.80;54.70;;;;;;4970959;28;20566;-63
2023/04/06 11:26:31;;;;;;;0.38;0.38;;;11.70;53.30;;;;;;4972399;28;20039;-62
2023/04/06 11:28:57;;;;;;;0.30;0.30;;;11.80;54.80;;;;;;4972310;28;20041;-63
2023/04/06 11:31:26;;;;;;;0.40;0.40;;;11.90;55.60;;;;;;4972375;28;20404;-64
2023/04/06 11:33:56;;;;;;;0.13;0.13;;;12.00;54.80;;;;;;4966348;28;20058;-62
2023/04/06 11:36:22;;;;;;;1.65;1.55;;;12.00;55.70;;;;;;4971250;28;20045;-63
2023/04/06 11:38:47;;;;;;;1.05;0.95;;;12.10;55.40;;;;;;4971428;28;20047;-62
2023/04/06 11:41:13;;;;;;;0.50;0.50;;;12.10;55.50;;;;;;4972031;28;20050;-63
2023/04/06 11:43:45;;;;;;;2.83;1.20;;;12.20;55.20;;;;;;4970670;28;20051;-63
2023/04/06 11:46:16;;;;;;;0.73;0.60;;;12.10;54.20;;;;;;4970106;28;20058;-62
2023/04/06 11:48:46;;;;;;;0.08;0.08;;;12.20;54.80;;;;;;4971742;28;20046;-63
2023/04/06 11:51:11;;;;;;;0.30;0.30;;;12.20;54.00;;;;;;4969829;28;20062;-63
2023/04/06 11:53:45;;;;;;;0.63;0.63;;;12.20;54.90;;;;;;4970492;28;20055;-62
2023/04/06 11:56:11;;;;;;;0.00;0.00;;;12.20;55.50;;;;;;4969118;28;20101;-62
2023/04/06 11:58:37;;;;;;;0.00;0.00;;;12.20;54.60;;;;;;4971639;28;20125;-64
2023/04/06 12:01:05;;;;;;;3.60;2.05;;;12.30;54.80;;;;;;4972405;28;20038;-63
2023/04/06 12:03:33;;;;;;;0.30;0.30;;;12.20;54.70;;;;;;4971780;28;20096;-62
2023/04/06 12:05:59;;;;;;;0.28;0.28;;;12.20;54.60;;;;;;4971887;28;20121;-64
2023/04/06 12:08:25;;;;;;;0.28;0.28;;;12.20;54.60;;;;;;4954495;28;20558;-63
2023/04/06 12:10:51;;;;;;;8.68;1.10;;;12.10;55.30;;;;;;4967860;28;20510;-63
2023/04/06 12:13:16;;;;;;;1.80;0.50;;;12.10;56.00;;;;;;4971981;28;20043;-63
2023/04/06 12:15:42;;;;;;;0.65;0.65;;;12.00;56.10;;;;;;4971370;28;20057;-63
2023/04/06 12:18:07;;;;;;;0.32;0.32;;;12.00;57.70;;;;;;4958208;28;20043;-63
2023/04/06 12:20:33;;;;;;;0.00;0.00;;;12.00;58.10;;;;;;4971052;28;20054;-63
2023/04/06 12:22:59;;;;;;;0.00;0.00;;;12.10;58.20;;;;;;4971445;28;20113;-63
2023/04/06 12:25:25;;;;;;;0.00;0.00;;;12.10;58.30;;;;;;4971303;28;20043;-64
2023/04/06 12:27:50;;;;;;;0.30;0.30;;;12.10;57.60;;;;;;4970685;28;20547;-63
2023/04/06 12:30:16;;;;;;;1.65;1.33;;;12.10;57.90;;;;;;4970478;28;20125;-64
2023/04/06 12:32:41;;;;;;;0.00;0.00;;;12.10;58.60;;;;;;4971353;28;20074;-63
2023/04/06 12:35:08;;;;;;;0.00;0.00;;;12.10;61.00;;;;;;4971142;28;20043;-64
2023/04/06 12:37:34;;;;;;;0.60;0.60;;;12.10;62.60;;;;;;4959037;28;20516;-63
2023/04/06 12:40:00;;;;;;;0.30;0.30;;;12.10;62.50;;;;;;4961550;28;20046;-64
2023/04/06 12:42:26;;;;;;;0.20;0.20;;;12.10;63.00;;;;;;4954200;28;20495;-63
2023/04/06 12:44:51;;;;;;;0.00;0.00;;;12.00;63.20;;;;;;4971235;28;20125;-64
2023/04/06 12:47:17;;;;;;;0.57;0.55;;;12.00;63.60;;;;;;4971620;28;20046;-64
2023/04/06 12:49:43;;;;;;;0.00;0.00;;;11.90;63.70;;;;;;4971369;28;20070;-63
2023/04/06 12:52:09;;;;;;;0.20;0.20;;;12.00;63.60;;;;;;4970455;28;20055;-63